Leeuwarden Air Base

METAR EHGG TAF EHGG
1 °C
°C
-
°C
6m
Wiek
02:30:40
LT
01:30
UTC
0 ft

1.000

2.000

3.000

4.000

5.000

OVC 1.700
MVFR
<?= Yii::t('app', 'Wind direction') ?> <?= Yii::t('app', 'of'); ?>
VAR
08:23
Wschód słońca
81%
Wilgotność
Siła wiatru
Zamknięte/Śnieg
Zasięg wzroku na RWY
Stan RWY
Widzialność pionowa
Min. widoczność
CAVOK
Trend
Korekta
Raport specjalny
1029 hPa
QNH
METAR EHGG 280125Z AUTO VRB02KT 9999 OVC017 01/M02 Q1029
Pochmurny
2 kt
2 kt
02:00
LIFR
2 kt
03:00
LIFR
2 kt
04:00
LIFR
2 kt
05:00
LIFR
2 kt
06:00
LIFR
2 kt
07:00
LIFR
2 kt
08:00
LIFR
2 kt
10 km+
Widoczność
1.700 ft
Sufit
2 kt
Wiatr
metar-taf.com/EHLW

Metar-Taf.com

Dekoder wizualny

My i strony trzecie śledzimy Twoje zachowanie internetowe na naszej stronie za pomocą plików cookie. Jeśli kontynuujesz, zakładamy, że zgadzasz się z naszymi polityka plików cookie.